Time;durP1;ratioP1;P1;durP2;ratioP2;P2;SDS_P1;SDS_P2;PMS_P1;PMS_P2;Temp;Humidity;BMP_temperature;BMP_pressure;BME280_temperature;BME280_humidity;BME280_pressure;Samples;Min_cycle;Max_cycle;Signal;HPM_P1;HPM_P2
2022/10/27 00:02:13;;;;;;;;;;;;;;;14.04;100.00;102078.41;5036055;28;20287;-44
2022/10/27 00:04:38;;;;;;;;;;;;;;;14.02;100.00;102080.41;5035798;28;20007;-44
2022/10/27 00:07:03;;;;;;;;;;;;;;;14.00;100.00;102077.03;5035058;28;19913;-48
2022/10/27 00:09:29;;;;;;;;;;;;;;;13.96;100.00;102075.66;5028099;28;20020;-45
2022/10/27 00:11:55;;;;;;;;;;;;;;;13.93;100.00;102081.31;5032967;28;19924;-42
2022/10/27 00:14:20;;;;;;;;;;;;;;;13.87;100.00;102072.03;5027761;28;19923;-46
2022/10/27 00:16:50;;;;;;;;;;;;;;;13.85;100.00;102070.50;5035345;28;19944;-47
2022/10/27 00:19:16;;;;;;;;;;;;;;;13.82;100.00;102070.81;5001686;28;20082;-42
2022/10/27 00:21:41;;;;;;;;;;;;;;;13.80;100.00;102076.34;5035436;28;20299;-44
2022/10/27 00:24:06;;;;;;;;;;;;;;;13.79;100.00;102086.22;5034123;28;19917;-43
2022/10/27 00:26:31;;;;;;;;;;;;;;;13.77;100.00;102082.00;5031848;28;19924;-43
2022/10/27 00:28:57;;;;;;;;;;;;;;;13.74;100.00;102077.78;5034331;28;19913;-44
2022/10/27 00:31:22;;;;;;;;;;;;;;;13.73;100.00;102083.28;5034755;28;20427;-47
2022/10/27 00:33:48;;;;;;;;;;;;;;;13.68;100.00;102072.16;5035715;28;20363;-45
2022/10/27 00:36:15;;;;;;;;;;;;;;;13.71;100.00;102094.19;5034543;28;20347;-44
2022/10/27 00:38:40;;;;;;;;;;;;;;;13.68;100.00;102086.47;5035947;28;20383;-44
2022/10/27 00:41:06;;;;;;;;;;;;;;;13.67;100.00;102089.28;5034092;28;19924;-44
2022/10/27 00:43:33;;;;;;;;;;;;;;;13.64;100.00;102087.72;5035895;28;19916;-43
2022/10/27 00:46:14;;;;;;;;;;;;;;;13.62;100.00;102092.41;5034936;28;19999;-43
2022/10/27 00:48:39;;;;;;;;;;;;;;;13.62;100.00;102089.72;5025111;28;19921;-44
2022/10/27 00:51:04;;;;;;;;;;;;;;;13.59;100.00;102087.34;5028581;28;19920;-45
2022/10/27 00:53:30;;;;;;;;;;;;;;;13.57;100.00;102086.66;5039031;28;20496;-43
2022/10/27 00:55:56;;;;;;;;;;;;;;;13.54;100.00;102097.69;5037451;28;19912;-44
2022/10/27 00:58:21;;;;;;;;;;;;;;;13.52;100.00;102102.38;5036899;28;20020;-45
2022/10/27 01:00:46;;;;;;;;;;;;;;;13.50;100.00;102097.16;5036429;28;20312;-46
2022/10/27 01:03:13;;;;;;;;;;;;;;;13.47;100.00;102099.28;5039321;28;20391;-44
2022/10/27 01:05:38;;;;;;;;;;;;;;;13.47;100.00;102101.97;5038539;28;19931;-43
2022/10/27 01:08:04;;;;;;;;;;;;;;;13.44;100.00;102095.03;5039061;28;20278;-43
2022/10/27 01:10:29;;;;;;;;;;;;;;;13.41;100.00;102096.19;5037335;28;19943;-42
2022/10/27 01:12:55;;;;;;;;;;;;;;;13.40;100.00;102099.88;5035391;28;19992;-41
2022/10/27 01:15:22;;;;;;;;;;;;;;;13.37;100.00;102100.19;5034197;28;20265;-43
2022/10/27 01:18:08;;;;;;;;;;;;;;;13.35;100.00;102102.16;5038123;28;21135;-41
2022/10/27 01:20:44;;;;;;;;;;;;;;;13.35;100.00;102102.16;5037337;28;19924;-44
2022/10/27 01:23:09;;;;;;;;;;;;;;;13.35;100.00;102107.53;5029292;28;19923;-42
2022/10/27 01:25:52;;;;;;;;;;;;;;;13.35;100.00;102102.16;5037515;28;20388;-42
2022/10/27 01:28:32;;;;;;;;;;;;;;;13.34;100.00;102103.16;5039499;28;19924;-42
2022/10/27 01:30:57;;;;;;;;;;;;;;;13.34;100.00;102097.81;5035902;28;20195;-44
2022/10/27 01:33:26;;;;;;;;;;;;;;;13.36;100.00;102109.22;5029654;28;19913;-43
2022/10/27 01:35:54;;;;;;;;;;;;;;;13.36;100.00;102103.84;5037953;28;20346;-43
2022/10/27 01:38:28;;;;;;;;;;;;;;;13.37;100.00;102100.19;5039379;28;20011;-47
2022/10/27 01:41:02;;;;;;;;;;;;;;;13.37;100.00;102113.59;5036406;28;20008;-44
2022/10/27 01:43:29;;;;;;;;;;;;;;;13.39;100.00;102110.75;5039235;28;19913;-46
2022/10/27 01:45:55;;;;;;;;;;;;;;;13.41;100.00;102116.84;5037024;28;19913;-43
2022/10/27 01:48:21;;;;;;;;;;;;;;;13.40;100.00;102109.75;5039400;28;19912;-44
2022/10/27 01:50:46;;;;;;;;;;;;;;;13.41;100.00;102103.41;5018387;28;19960;-45
2022/10/27 01:53:11;;;;;;;;;;;;;;;13.43;100.00;102114.84;5038024;28;20234;-45
2022/10/27 01:55:36;;;;;;;;;;;;;;;13.45;100.00;102112.00;5037657;28;19919;-45
2022/10/27 01:58:02;;;;;;;;;;;;;;;13.45;100.00;102106.66;5039131;28;20411;-44
2022/10/27 02:00:30;;;;;;;;;;;;;;;13.43;100.00;102113.00;5038112;28;19917;-45
2022/10/27 02:03:03;;;;;;;;;;;;;;;13.42;100.00;102107.78;5017134;28;20069;-45
2022/10/27 02:05:35;;;;;;;;;;;;;;;13.43;100.00;102104.09;5037590;28;19913;-46
2022/10/27 02:08:08;;;;;;;;;;;;;;;13.42;100.00;102097.03;5038557;28;20301;-44
2022/10/27 02:10:45;;;;;;;;;;;;;;;13.40;100.00;102093.66;5036462;28;19913;-45
2022/10/27 02:13:11;;;;;;;;;;;;;;;13.37;100.00;102100.19;5032886;28;19931;-45
2022/10/27 02:15:42;;;;;;;;;;;;;;;13.34;100.00;102095.13;5036799;28;19925;-44
2022/10/27 02:18:09;;;;;;;;;;;;;;;13.30;100.00;102096.34;5038972;28;19920;-43
2022/10/27 02:20:37;;;;;;;;;;;;;;;13.25;100.00;102091.47;5025057;28;20422;-44
2022/10/27 02:23:06;;;;;;;;;;;;;;;13.21;100.00;102094.56;5038126;28;20008;-43
2022/10/27 02:25:35;;;;;;;;;;;;;;;13.16;100.00;102088.81;5014068;28;19920;-43
2022/10/27 02:28:02;;;;;;;;;;;;;;;13.10;100.00;102087.53;5030892;28;19917;-45
2022/10/27 02:30:29;;;;;;;;;;;;;;;13.06;100.00;102091.53;5035879;28;20398;-44
2022/10/27 02:32:54;;;;;;;;;;;;;;;13.02;100.00;102087.47;5037662;28;19920;-44
2022/10/27 02:35:19;;;;;;;;;;;;;;;12.97;100.00;102084.38;5029927;28;19913;-43
2022/10/27 02:37:45;;;;;;;;;;;;;;;12.94;100.00;102092.69;5030183;28;19917;-44
2022/10/27 02:40:10;;;;;;;;;;;;;;;12.89;100.00;102085.09;5036415;28;19912;-43
2022/10/27 02:42:35;;;;;;;;;;;;;;;12.87;100.00;102087.91;5037282;28;20030;-43
2022/10/27 02:45:00;;;;;;;;;;;;;;;12.84;100.00;102082.00;5037171;28;19951;-45
2022/10/27 02:47:25;;;;;;;;;;;;;;;12.82;100.00;102084.81;5038456;28;20016;-44
2022/10/27 02:49:51;;;;;;;;;;;;;;;12.81;100.00;102088.50;5035337;28;19924;-46
2022/10/27 02:52:16;;;;;;;;;;;;;;;12.79;100.00;102074.38;5037456;28;19917;-44
2022/10/27 02:54:46;;;;;;;;;;;;;;;12.77;100.00;102078.22;5036615;28;19905;-43
2022/10/27 02:57:12;;;;;;;;;;;;;;;12.76;100.00;102073.84;5033782;28;19913;-44
2022/10/27 02:59:37;;;;;;;;;;;;;;;12.73;100.00;102076.78;5025669;28;20028;-44
2022/10/27 03:02:02;;;;;;;;;;;;;;;12.72;100.00;102075.13;5029397;28;19932;-44
2022/10/27 03:04:27;;;;;;;;;;;;;;;12.70;100.00;102064.53;5036936;28;19916;-45
2022/10/27 03:06:52;;;;;;;;;;;;;;;12.69;100.00;102069.06;5036743;28;19928;-46
2022/10/27 03:09:17;;;;;;;;;;;;;;;12.71;100.00;102070.75;5035952;28;19912;-42
2022/10/27 03:11:43;;;;;;;;;;;;;;;12.71;100.00;102060.84;5034844;28;19924;-45
2022/10/27 03:14:08;;;;;;;;;;;;;;;12.68;100.00;102062.00;5036915;28;19921;-42
2022/10/27 03:16:33;;;;;;;;;;;;;;;12.68;100.00;102045.91;5036311;28;19916;-43
2022/10/27 03:18:58;;;;;;;;;;;;;;;12.67;100.00;102056.78;5019072;28;19912;-44
2022/10/27 03:21:23;;;;;;;;;;;;;;;12.64;100.00;102049.91;5036070;28;19924;-42
2022/10/27 03:23:49;;;;;;;;;;;;;;;12.61;100.00;102052.00;5036825;28;20320;-45
2022/10/27 03:26:14;;;;;;;;;;;;;;;12.59;100.00;102037.91;5035525;28;19928;-43
2022/10/27 03:28:39;;;;;;;;;;;;;;;12.55;100.00;102037.34;5037163;28;19923;-45
2022/10/27 03:31:04;;;;;;;;;;;;;;;12.54;100.00;102043.69;5035125;28;20027;-43
2022/10/27 03:33:30;;;;;;;;;;;;;;;12.53;100.00;102050.06;5018822;28;19917;-42
2022/10/27 03:35:55;;;;;;;;;;;;;;;12.50;100.00;102051.16;5035836;28;20003;-44
2022/10/27 03:38:20;;;;;;;;;;;;;;;12.49;100.00;102045.97;5037011;28;19912;-44
2022/10/27 03:40:46;;;;;;;;;;;;;;;12.47;100.00;102047.94;5034168;28;20572;-43
2022/10/27 03:43:11;;;;;;;;;;;;;;;12.46;100.00;102049.78;5028606;28;19928;-46
2022/10/27 03:45:36;;;;;;;;;;;;;;;12.44;100.00;102054.44;5036363;28;19974;-47
2022/10/27 03:48:03;;;;;;;;;;;;;;;12.43;100.00;102041.19;5036730;28;20375;-44
2022/10/27 03:50:28;;;;;;;;;;;;;;;12.42;100.00;102037.69;5034768;28;20469;-44
2022/10/27 03:52:54;;;;;;;;;;;;;;;12.41;100.00;102035.13;5034985;28;20176;-44
2022/10/27 03:55:19;;;;;;;;;;;;;;;12.39;100.00;102035.28;5029997;28;19913;-43
2022/10/27 03:57:44;;;;;;;;;;;;;;;12.38;100.00;102035.41;5018485;28;19921;-45
2022/10/27 04:00:10;;;;;;;;;;;;;;;12.38;100.00;102033.56;5036060;28;19983;-46
2022/10/27 04:02:35;;;;;;;;;;;;;;;12.37;100.00;102036.41;5035309;28;19936;-46
2022/10/27 04:05:00;;;;;;;;;;;;;;;12.36;100.00;102040.09;5034963;28;19916;-45
2022/10/27 04:07:25;;;;;;;;;;;;;;;12.34;100.00;102047.41;5036525;28;20425;-47
2022/10/27 04:09:50;;;;;;;;;;;;;;;12.31;100.00;102048.53;5028926;28;19917;-44
2022/10/27 04:12:15;;;;;;;;;;;;;;;12.29;100.00;102039.81;5025118;28;20416;-46
2022/10/27 04:14:41;;;;;;;;;;;;;;;12.27;100.00;102044.44;5033547;28;20004;-45
2022/10/27 04:17:06;;;;;;;;;;;;;;;12.26;100.00;102053.47;5036174;28;19928;-44
2022/10/27 04:19:31;;;;;;;;;;;;;;;12.24;100.00;102056.31;5029211;28;19921;-45
2022/10/27 04:21:56;;;;;;;;;;;;;;;12.22;100.00;102057.41;5030924;28;20262;-46
2022/10/27 04:24:21;;;;;;;;;;;;;;;12.20;100.00;102065.59;5036179;28;20075;-43
2022/10/27 04:26:46;;;;;;;;;;;;;;;12.18;100.00;102072.94;5029221;28;20016;-43
2022/10/27 04:29:12;;;;;;;;;;;;;;;12.17;100.00;102065.03;5035187;28;19917;-44
2022/10/27 04:31:37;;;;;;;;;;;;;;;12.15;100.00;102065.16;5035990;28;19917;-44
2022/10/27 04:34:02;;;;;;;;;;;;;;;12.12;100.00;102060.13;5035198;28;19919;-44
2022/10/27 04:36:27;;;;;;;;;;;;;;;12.09;100.00;102063.06;5034422;28;19913;-45
2022/10/27 04:38:53;;;;;;;;;;;;;;;12.07;100.00;102073.09;5017718;28;19982;-46
2022/10/27 04:41:18;;;;;;;;;;;;;;;12.06;100.00;102063.34;5033465;28;19967;-44
2022/10/27 04:43:43;;;;;;;;;;;;;;;12.03;100.00;102067.16;5035605;28;19912;-43
2022/10/27 04:46:08;;;;;;;;;;;;;;;12.02;100.00;102064.63;5035375;28;21573;-46
2022/10/27 04:48:33;;;;;;;;;;;;;;;12.00;100.00;102064.78;5035471;28;19913;-44
2022/10/27 04:50:59;;;;;;;;;;;;;;;11.99;100.00;102065.75;5035091;28;19912;-47
2022/10/27 04:53:24;;;;;;;;;;;;;;;11.98;100.00;102068.56;5017846;28;20486;-45
2022/10/27 04:55:50;;;;;;;;;;;;;;;11.97;100.00;102073.06;5033007;28;19923;-43
2022/10/27 04:58:15;;;;;;;;;;;;;;;11.97;100.00;102073.06;5026392;28;19974;-44
2022/10/27 05:00:41;;;;;;;;;;;;;;;11.99;100.00;102070.25;5035228;28;20291;-43
2022/10/27 05:03:07;;;;;;;;;;;;;;;12.02;100.00;102067.31;5035383;28;19996;-43
2022/10/27 05:05:32;;;;;;;;;;;;;;;12.04;100.00;102068.84;5033381;28;19921;-44
2022/10/27 05:07:59;;;;;;;;;;;;;;;12.06;100.00;102076.75;5033276;28;19912;-46
2022/10/27 05:10:25;;;;;;;;;;;;;;;12.07;100.00;102073.09;5025450;28;19921;-44
2022/10/27 05:12:50;;;;;;;;;;;;;;;12.08;100.00;102067.59;5029839;28;19955;-45
2022/10/27 05:15:15;;;;;;;;;;;;;;;12.09;100.00;102065.75;5034629;28;19983;-44
2022/10/27 05:17:40;;;;;;;;;;;;;;;12.12;100.00;102066.31;5033167;28;19923;-42
2022/10/27 05:20:06;;;;;;;;;;;;;;;12.14;100.00;102060.81;5035260;28;20614;-43
2022/10/27 05:22:31;;;;;;;;;;;;;;;12.18;100.00;102062.22;5034062;28;20176;-44
2022/10/27 05:24:56;;;;;;;;;;;;;;;12.21;100.00;102066.47;5019037;28;20652;-47
2022/10/27 05:27:21;;;;;;;;;;;;;;;12.24;100.00;102068.84;5035576;28;19913;-43
2022/10/27 05:29:47;;;;;;;;;;;;;;;12.24;100.00;102072.38;5030327;28;19954;-44
2022/10/27 05:32:12;;;;;;;;;;;;;;;12.24;100.00;102064.34;5026463;28;20403;-44
2022/10/27 05:34:37;;;;;;;;;;;;;;;12.28;100.00;102060.38;5031843;28;19923;-45
2022/10/27 05:37:02;;;;;;;;;;;;;;;12.32;100.00;102066.28;5031827;28;19917;-44
2022/10/27 05:39:28;;;;;;;;;;;;;;;12.34;100.00;102067.00;5037214;28;19996;-46
2022/10/27 05:41:53;;;;;;;;;;;;;;;12.36;100.00;102061.50;5032897;28;20044;-45
2022/10/27 05:44:18;;;;;;;;;;;;;;;12.37;100.00;102063.19;5033762;28;20183;-43
2022/10/27 05:46:43;;;;;;;;;;;;;;;12.38;100.00;102043.47;5043649;28;20415;-42
2022/10/27 05:49:08;;;;;;;;;;;;;;;12.40;100.00;102050.34;5013246;28;19936;-42
2022/10/27 05:51:34;;;;;;;;;;;;;;;12.42;100.00;102047.53;5033729;28;19917;-46
2022/10/27 05:53:59;;;;;;;;;;;;;;;12.42;100.00;102050.22;5038525;28;19998;-43
2022/10/27 05:56:24;;;;;;;;;;;;;;;12.40;100.00;102045.00;5035035;28;19925;-43
2022/10/27 05:58:49;;;;;;;;;;;;;;;12.41;100.00;102044.00;5037691;28;19917;-45
2022/10/27 06:01:14;;;;;;;;;;;;;;;12.41;100.00;102048.53;5033283;28;19960;-41
2022/10/27 06:03:40;;;;;;;;;;;;;;;12.40;100.00;102046.84;5015941;28;19924;-46
2022/10/27 06:06:05;;;;;;;;;;;;;;;12.40;100.00;102046.84;5035197;28;19948;-46
2022/10/27 06:08:30;;;;;;;;;;;;;;;12.38;100.00;102048.81;5031430;28;19920;-44
2022/10/27 06:10:55;;;;;;;;;;;;;;;12.35;100.00;102039.22;5033977;28;19948;-44
2022/10/27 06:13:21;;;;;;;;;;;;;;;12.34;100.00;102045.59;5033476;28;19953;-46
2022/10/27 06:15:46;;;;;;;;;;;;;;;12.34;100.00;102040.22;5015013;28;19928;-43
2022/10/27 06:18:12;;;;;;;;;;;;;;;12.34;100.00;102042.03;5035956;28;19920;-41
2022/10/27 06:20:37;;;;;;;;;;;;;;;12.37;100.00;102039.91;5023715;28;20450;-43
2022/10/27 06:23:02;;;;;;;;;;;;;;;12.38;100.00;102038.94;5026898;28;20309;-44
2022/10/27 06:25:28;;;;;;;;;;;;;;;12.40;100.00;102036.94;5026357;28;19917;-43
2022/10/27 06:27:53;;;;;;;;;;;;;;;12.41;100.00;102037.81;5031679;28;19927;-44
2022/10/27 06:30:19;;;;;;;;;;;;;;;12.42;100.00;102037.69;5033054;28;19924;-43
2022/10/27 06:32:44;;;;;;;;;;;;;;;12.43;100.00;102036.66;5018559;28;19974;-44
2022/10/27 06:35:09;;;;;;;;;;;;;;;12.44;100.00;102032.16;5013009;28;20228;-43
2022/10/27 06:37:42;;;;;;;;;;;;;;;12.43;100.00;102038.50;5033704;28;20115;-44
2022/10/27 06:40:09;;;;;;;;;;;;;;;12.45;100.00;102034.69;5038625;28;19912;-46
2022/10/27 06:42:35;;;;;;;;;;;;;;;12.47;100.00;102034.53;5034002;28;20400;-43
2022/10/27 06:45:00;;;;;;;;;;;;;;;12.47;100.00;102035.41;5036515;28;19917;-45
2022/10/27 06:47:26;;;;;;;;;;;;;;;12.47;100.00;102027.38;5028262;28;19913;-45
2022/10/27 06:49:51;;;;;;;;;;;;;;;12.48;100.00;102026.38;5031809;28;19920;-43
2022/10/27 06:52:16;;;;;;;;;;;;;;;12.49;100.00;102024.53;5034131;28;19917;-44
2022/10/27 06:54:42;;;;;;;;;;;;;;;12.46;100.00;102020.31;5033934;28;19916;-42
2022/10/27 06:57:07;;;;;;;;;;;;;;;12.46;100.00;102023.00;5035123;28;19971;-42
2022/10/27 06:59:32;;;;;;;;;;;;;;;12.47;100.00;102021.16;5035111;28;19920;-43
2022/10/27 07:01:58;;;;;;;;;;;;;;;12.46;100.00;102019.47;5032707;28;19928;-44
2022/10/27 07:04:23;;;;;;;;;;;;;;;12.46;100.00;102014.13;5030211;28;19916;-48
2022/10/27 07:06:48;;;;;;;;;;;;;;;12.47;100.00;102015.78;5036845;28;19996;-45
2022/10/27 07:09:13;;;;;;;;;;;;;;;12.49;100.00;102017.34;5034234;28;20356;-44
2022/10/27 07:11:38;;;;;;;;;;;;;;;12.50;100.00;102023.53;5036575;28;19920;-44
2022/10/27 07:14:04;;;;;;;;;;;;;;;12.52;100.00;102020.72;5037309;28;19919;-44
2022/10/27 07:16:29;;;;;;;;;;;;;;;12.53;100.00;102025.94;5036302;28;20352;-47
2022/10/27 07:18:54;;;;;;;;;;;;;;;12.55;100.00;102031.16;5035758;28;20403;-47
2022/10/27 07:21:19;;;;;;;;;;;;;;;12.55;100.00;102034.66;5036041;28;19994;-46
2022/10/27 07:23:44;;;;;;;;;;;;;;;12.57;100.00;102034.53;5037035;28;19913;-47
2022/10/27 07:26:09;;;;;;;;;;;;;;;12.58;100.00;102029.03;5035786;28;20019;-45
2022/10/27 07:28:35;;;;;;;;;;;;;;;12.59;100.00;102017.31;5036236;28;19913;-46
2022/10/27 07:31:00;;;;;;;;;;;;;;;12.60;100.00;102027.03;5035329;28;19917;-46
2022/10/27 07:33:25;;;;;;;;;;;;;;;12.65;100.00;102022.09;5033377;28;19917;-44
2022/10/27 07:35:51;;;;;;;;;;;;;;;12.68;100.00;102008.41;5035203;28;20328;-43
2022/10/27 07:38:17;;;;;;;;;;;;;;;12.73;100.00;102007.97;5036903;28;19912;-43
2022/10/27 07:40:42;;;;;;;;;;;;;;;12.80;100.00;102013.59;5035179;28;20314;-45
2022/10/27 07:43:08;;;;;;;;;;;;;;;12.87;100.00;102018.19;5025049;28;19917;-45
2022/10/27 07:45:33;;;;;;;;;;;;;;;12.94;100.00;102010.41;5035576;28;19981;-42
2022/10/27 07:47:58;;;;;;;;;;;;;;;13.03;100.00;102016.72;5036663;28;19913;-45
2022/10/27 07:50:26;;;;;;;;;;;;;;;13.13;100.00;102020.19;5035503;28;20046;-45
2022/10/27 07:52:52;;;;;;;;;;;;;;;13.24;100.00;102020.00;5036094;28;19919;-45
2022/10/27 07:55:18;;;;;;;;;;;;;;;13.37;100.00;102018.81;5016818;28;19921;-47
2022/10/27 07:57:43;;;;;;;;;;;;;;;13.51;100.00;102029.06;5036349;28;19913;-45
2022/10/27 08:00:16;;;;;;;;;;;;;;;13.61;100.00;102026.28;5035707;28;20001;-44
2022/10/27 08:02:42;;;;;;;;;;;;;;;13.72;100.00;102026.06;5034275;28;19970;-44
2022/10/27 08:05:07;;;;;;;;;;;;;;;13.79;100.00;102029.00;5032283;28;19921;-46
2022/10/27 08:07:33;;;;;;;;;;;;;;;13.83;100.00;102027.69;5025972;28;20398;-44
2022/10/27 08:09:58;;;;;;;;;;;;;;;13.88;100.00;102029.91;5007157;28;21004;-46
2022/10/27 08:12:23;;;;;;;;;;;;;;;13.90;100.00;102018.03;5030683;28;20110;-43
2022/10/27 08:14:48;;;;;;;;;;;;;;;13.91;100.00;102021.56;5034969;28;19921;-44
2022/10/27 08:17:14;;;;;;;;;;;;;;;13.97;100.00;102013.72;5021063;28;19983;-43
2022/10/27 08:19:39;;;;;;;;;;;;;;;14.04;100.00;102019.31;5035302;28;19919;-44
2022/10/27 08:22:05;;;;;;;;;;;;;;;14.08;100.00;102015.31;5035117;28;20166;-46
2022/10/27 08:24:30;;;;;;;;;;;;;;;14.14;100.00;102001.28;5016521;28;19916;-48
2022/10/27 08:26:55;;;;;;;;;;;;;;;14.19;100.00;102003.50;5034318;28;19948;-46
2022/10/27 08:29:20;;;;;;;;;;;;;;;14.24;100.00;102003.88;5033884;28;19955;-43
2022/10/27 08:31:46;;;;;;;;;;;;;;;14.30;100.00;102011.28;5033629;28;19913;-43
2022/10/27 08:34:11;;;;;;;;;;;;;;;14.36;100.00;102009.84;5034603;28;19947;-43
2022/10/27 08:36:38;;;;;;;;;;;;;;;14.44;100.00;102012.53;5013947;28;19971;-45
2022/10/27 08:39:12;;;;;;;;;;;;;;;14.55;100.00;102012.28;5028090;28;20440;-44
2022/10/27 08:41:50;;;;;;;;;;;;;;;14.67;100.00;102012.06;5030801;28;19923;-44
2022/10/27 08:44:30;;;;;;;;;;;;;;;14.80;100.00;102011.63;5022869;28;19928;-45
2022/10/27 08:46:58;;;;;;;;;;;;;;;14.92;100.00;102004.97;5028039;28;20279;-43
2022/10/27 08:49:36;;;;;;;;;;;;;;;15.03;100.00;102004.66;5028178;28;19924;-45
2022/10/27 08:52:05;;;;;;;;;;;;;;;15.18;100.00;102010.28;5035134;28;20012;-43
2022/10/27 08:54:30;;;;;;;;;;;;;;;15.30;100.00;102006.28;5012597;28;20406;-46
2022/10/27 08:56:56;;;;;;;;;;;;;;;15.41;100.00;101998.88;5034888;28;19917;-46
2022/10/27 08:59:23;;;;;;;;;;;;;;;15.56;100.00;102004.47;5035680;28;20814;-45
2022/10/27 09:01:54;;;;;;;;;;;;;;;15.65;100.00;101998.13;5034504;28;19921;-45
2022/10/27 09:04:25;;;;;;;;;;;;;;;15.77;100.00;101998.66;5034805;28;20004;-46
2022/10/27 09:07:09;;;;;;;;;;;;;;;15.89;100.00;101986.53;5034820;28;20417;-46
2022/10/27 09:09:43;;;;;;;;;;;;;;;16.01;100.00;101979.78;5022293;28;20212;-44
2022/10/27 09:12:24;;;;;;;;;;;;;;;16.12;100.00;101969.69;5022684;28;19921;-44
2022/10/27 09:14:49;;;;;;;;;;;;;;;16.21;100.00;101969.50;5038233;28;19913;-44
2022/10/27 09:17:19;;;;;;;;;;;;;;;16.31;100.00;101968.47;5039281;28;20016;-42
2022/10/27 09:19:47;;;;;;;;;;;;;;;16.42;100.00;101965.41;5036700;28;19956;-42
2022/10/27 09:22:15;;;;;;;;;;;;;;;16.53;100.00;101969.59;5035814;28;19917;-43
2022/10/27 09:24:40;;;;;;;;;;;;;;;16.58;100.00;101961.81;5037675;28;20338;-42
2022/10/27 09:27:06;;;;;;;;;;;;;;;16.75;100.00;101976.09;5039480;28;19921;-44
2022/10/27 09:29:32;;;;;;;;;;;;;;;16.85;100.00;101965.13;5038301;28;19921;-42
2022/10/27 09:32:14;;;;;;;;;;;;;;;16.94;100.00;101962.25;5038544;28;20088;-44
2022/10/27 09:34:44;;;;;;;;;;;;;;;17.06;100.00;101957.28;5034070;28;19913;-44
2022/10/27 09:37:13;;;;;;;;;;;;;;;17.16;100.00;101957.06;5039251;28;19917;-43
2022/10/27 09:39:42;;;;;;;;;;;;;;;17.23;100.00;101949.09;5037312;28;20423;-43
2022/10/27 09:42:07;;;;;;;;;;;;;;;17.31;100.00;101949.03;5038238;28;20066;-44
2022/10/27 09:44:33;;;;;;;;;;;;;;;17.40;100.00;101952.53;5038418;28;19991;-43
2022/10/27 09:46:58;;;;;;;;;;;;;;;17.48;100.00;101947.06;5038345;28;20410;-46
2022/10/27 09:49:28;;;;;;;;;;;;;;;17.55;100.00;101939.06;5037331;28;19917;-47
2022/10/27 09:51:56;;;;;;;;;;;;;;;17.64;100.00;101943.41;5037192;28;19975;-47
2022/10/27 09:54:28;;;;;;;;;;;;;;;17.74;100.00;101935.91;5037626;28;20391;-44
2022/10/27 09:56:53;;;;;;;;;;;;;;;17.88;100.00;101943.22;5037777;28;19920;-45
2022/10/27 09:59:22;;;;;;;;;;;;;;;18.05;100.00;101943.09;5038758;28;19966;-43
2022/10/27 10:01:54;;;;;;;;;;;;;;;18.21;100.00;101940.22;5034905;28;19921;-43
2022/10/27 10:04:25;;;;;;;;;;;;;;;18.45;100.00;101949.09;5036446;28;20395;-43
2022/10/27 10:06:52;;;;;;;;;;;;;;;18.68;100.00;101943.56;5037408;28;19916;-43
2022/10/27 10:09:25;;;;;;;;;;;;;;;18.87;95.93;101944.88;5035816;28;20462;-43
2022/10/27 10:11:51;;;;;;;;;;;;;;;19.07;99.19;101947.00;5035337;28;19925;-43
2022/10/27 10:14:23;;;;;;;;;;;;;;;19.23;95.89;101940.50;5038176;28;19970;-44
2022/10/27 10:16:48;;;;;;;;;;;;;;;19.35;95.75;101920.84;5037178;28;19963;-42
2022/10/27 10:19:17;;;;;;;;;;;;;;;19.38;92.31;101922.31;5036350;28;19913;-45
2022/10/27 10:22:00;;;;;;;;;;;;;;;19.38;92.36;101925.03;5037304;28;19917;-46
2022/10/27 10:24:27;;;;;;;;;;;;;;;19.35;92.27;101920.84;5035398;28;20028;-43
2022/10/27 10:26:54;;;;;;;;;;;;;;;19.32;94.58;101917.69;5027467;28;20008;-44
2022/10/27 10:29:26;;;;;;;;;;;;;;;19.33;95.09;101919.34;5029611;28;19951;-44
2022/10/27 10:32:11;;;;;;;;;;;;;;;19.34;95.87;101919.16;5018387;28;19986;-46
2022/10/27 10:34:38;;;;;;;;;;;;;;;19.37;95.23;101907.94;5035731;28;20323;-43
2022/10/27 10:37:23;;;;;;;;;;;;;;;19.39;94.04;101914.00;5033574;28;19959;-46
2022/10/27 10:39:48;;;;;;;;;;;;;;;19.41;92.97;101915.69;5016410;28;19917;-42
2022/10/27 10:42:17;;;;;;;;;;;;;;;19.46;94.46;101921.38;5036140;28;19917;-47
2022/10/27 10:44:42;;;;;;;;;;;;;;;19.55;92.51;101904.78;5036897;28;19919;-45
2022/10/27 10:47:22;;;;;;;;;;;;;;;19.57;94.21;101901.88;5032074;28;20430;-44
2022/10/27 10:49:53;;;;;;;;;;;;;;;19.63;93.57;101905.69;5036257;28;20008;-43
2022/10/27 10:52:20;;;;;;;;;;;;;;;19.61;92.46;101896.91;5037091;28;19917;-45
2022/10/27 10:54:45;;;;;;;;;;;;;;;19.69;93.02;101897.59;5035558;28;20336;-44
2022/10/27 10:57:31;;;;;;;;;;;;;;;19.79;90.50;101900.00;5037143;28;20011;-47
2022/10/27 10:59:57;;;;;;;;;;;;;;;19.85;92.94;101895.66;5035440;28;20634;-44
2022/10/27 11:02:22;;;;;;;;;;;;;;;19.88;90.17;101892.56;5033444;28;19925;-43
2022/10/27 11:04:47;;;;;;;;;;;;;;;19.88;92.47;101887.16;5017870;28;20362;-45
2022/10/27 11:07:18;;;;;;;;;;;;;;;19.83;90.75;101886.91;5035286;28;19912;-44
2022/10/27 11:09:58;;;;;;;;;;;;;;;19.77;91.73;101884.97;5028133;28;19913;-44
2022/10/27 11:12:27;;;;;;;;;;;;;;;19.72;91.43;101883.66;5037493;28;19924;-45
2022/10/27 11:14:53;;;;;;;;;;;;;;;19.67;91.50;101888.84;5035619;28;20303;-47
2022/10/27 11:17:19;;;;;;;;;;;;;;;19.68;91.61;101901.34;5036023;28;19924;-44
2022/10/27 11:19:44;;;;;;;;;;;;;;;19.74;91.83;101899.72;5028780;28;19975;-45
2022/10/27 11:22:15;;;;;;;;;;;;;;;19.78;92.25;101898.31;5016100;28;19963;-47
2022/10/27 11:24:45;;;;;;;;;;;;;;;19.71;90.38;101892.81;5028922;28;20331;-47
2022/10/27 11:27:13;;;;;;;;;;;;;;;19.68;93.22;101884.25;5037167;28;19913;-45
2022/10/27 11:29:43;;;;;;;;;;;;;;;19.66;92.98;101886.31;5036526;28;19917;-46
2022/10/27 11:32:32;;;;;;;;;;;;;;;19.60;92.71;101887.91;5036962;28;19924;-44
2022/10/27 11:34:57;;;;;;;;;;;;;;;19.57;93.93;101880.22;5026719;28;20846;-44
2022/10/27 11:37:30;;;;;;;;;;;;;;;19.57;92.59;101889.16;5036295;28;19960;-45
2022/10/27 11:40:05;;;;;;;;;;;;;;;19.63;93.85;101878.56;5034160;28;20171;-45
2022/10/27 11:43:06;;;;;;;;;;;;;;;19.76;94.44;101867.88;5031554;28;19928;-44
2022/10/27 11:45:31;;;;;;;;;;;;;;;19.82;92.72;101869.78;4949363;28;20540;-48
2022/10/27 11:48:01;;;;;;;;;;;;;;;19.89;92.59;101867.97;5004057;28;19924;-48
2022/10/27 11:50:36;;;;;;;;;;;;;;;19.96;93.20;101870.72;5031068;28;19924;-44
2022/10/27 11:53:01;;;;;;;;;;;;;;;19.96;92.89;101870.72;5035241;28;19928;-46
2022/10/27 11:55:38;;;;;;;;;;;;;;;19.92;93.18;101870.28;5034396;28;20298;-44
2022/10/27 11:58:30;;;;;;;;;;;;;;;19.88;94.89;101870.88;5036582;28;20403;-48
2022/10/27 12:00:55;;;;;;;;;;;;;;;19.82;94.66;101855.41;5033164;28;19923;-46
2022/10/27 12:03:23;;;;;;;;;;;;;;;19.72;94.18;101853.84;5033187;28;19912;-45
2022/10/27 12:06:06;;;;;;;;;;;;;;;19.65;95.83;101852.94;5035243;28;20248;-44
2022/10/27 12:08:40;;;;;;;;;;;;;;;19.66;96.57;101843.78;5030816;28;20019;-45
2022/10/27 12:11:15;;;;;;;;;;;;;;;19.63;97.00;101841.47;5035960;28;20011;-45
2022/10/27 12:13:46;;;;;;;;;;;;;;;19.55;96.48;101837.03;5034676;28;19939;-44
2022/10/27 12:16:14;;;;;;;;;;;;;;;19.52;98.10;101832.00;5035419;28;19916;-46
2022/10/27 12:18:51;;;;;;;;;;;;;;;19.54;96.10;101834.53;5036574;28;19913;-44
2022/10/27 12:21:22;;;;;;;;;;;;;;;19.54;96.40;101829.94;5034159;28;20378;-44
2022/10/27 12:24:02;;;;;;;;;;;;;;;19.58;96.58;101830.38;5033626;28;19924;-43
2022/10/27 12:26:46;;;;;;;;;;;;;;;19.66;97.45;101823.97;5033231;28;20299;-45
2022/10/27 12:29:13;;;;;;;;;;;;;;;19.84;96.94;101826.22;5035172;28;20275;-43
2022/10/27 12:31:43;;;;;;;;;;;;;;;19.94;96.33;101818.56;5029169;28;19920;-48